Time;durP1;ratioP1;P1;durP2;ratioP2;P2;SDS_P1;SDS_P2;PMS_P1;PMS_P2;Temp;Humidity;BMP_temperature;BMP_pressure;BME280_temperature;BME280_humidity;BME280_pressure;Samples;Min_cycle;Max_cycle;Signal;HPM_P1;HPM_P2
2022/02/08 00:01:21;;;;;;;;;;;;;;;14.11;63.40;102581.63;5656766;22;19926;-86
2022/02/08 00:03:50;;;;;;;;;;;;;;;14.05;63.57;102583.69;5360934;23;19940;-86
2022/02/08 00:06:47;;;;;;;;;;;;;;;14.06;64.02;102580.91;4990671;23;19950;-86
2022/02/08 00:09:17;;;;;;;;;;;;;;;13.26;66.28;102589.81;5033071;22;19939;-87
2022/02/08 00:12:07;;;;;;;;;;;;;;;13.74;65.75;102593.78;5078183;23;19926;-89
2022/02/08 00:17:36;;;;;;;;;;;;;;;12.38;71.36;102589.66;5267883;22;19935;-86
2022/02/08 00:20:08;;;;;;;;;;;;;;;12.72;69.76;102594.13;5026169;22;19941;-86
2022/02/08 00:22:46;;;;;;;;;;;;;;;14.29;64.16;102596.44;5017648;23;19933;-87
2022/02/08 00:25:27;;;;;;;;;;;;;;;12.94;68.55;102588.09;5037860;22;19943;-86
2022/02/08 00:27:53;;;;;;;;;;;;;;;13.87;65.31;102585.19;5012036;28;19926;-86
2022/02/08 00:30:18;;;;;;;;;;;;;;;12.52;69.87;102591.97;4995849;28;19925;-88
2022/02/08 00:32:44;;;;;;;;;;;;;;;13.06;70.61;102590.44;5012037;28;20339;-89
2022/02/08 00:35:20;;;;;;;;;;;;;;;13.69;67.80;102589.41;5028193;22;19917;-86
2022/02/08 00:40:57;;;;;;;;;;;;;;;13.30;70.17;102585.19;5242343;22;19933;-87
2022/02/08 00:46:54;;;;;;;;;;;;;;;12.90;72.10;102587.25;5024873;22;19942;-87
2022/02/08 00:49:27;;;;;;;;;;;;;;;13.95;67.54;102589.44;5035296;28;20016;-87
2022/02/08 00:52:17;;;;;;;;;;;;;;;14.65;65.51;102584.31;5075581;22;19926;-86
2022/02/08 00:54:43;;;;;;;;;;;;;;;12.83;70.24;102592.94;4995351;28;19940;-86
2022/02/08 00:57:09;;;;;;;;;;;;;;;14.17;68.02;102581.41;5013637;28;20379;-85
2022/02/08 01:02:37;;;;;;;;;;;;;;;13.94;67.10;102575.91;5316443;22;20880;-87
2022/02/08 01:05:05;;;;;;;;;;;;;;;14.20;67.04;102576.81;4996079;28;19926;-86
2022/02/08 01:07:50;;;;;;;;;;;;;;;13.53;68.86;102580.88;5100990;23;19926;-86
2022/02/08 01:10:38;;;;;;;;;;;;;;;14.25;66.49;102580.25;5023239;22;19937;-86
2022/02/08 01:13:24;;;;;;;;;;;;;;;13.58;69.86;102579.78;5031465;22;19927;-86
2022/02/08 01:16:03;;;;;;;;;;;;;;;14.36;67.52;102573.50;5041369;22;19927;-87
2022/02/08 01:18:56;;;;;;;;;;;;;;;14.22;66.63;102569.47;5054153;23;20053;-87
2022/02/08 01:24:46;;;;;;;;;;;;;;;14.42;65.70;102560.59;4968583;28;20427;-87
2022/02/08 01:44:18;;;;;;;;;;;;;;;14.68;66.00;102566.00;5050691;22;19993;-87
2022/02/08 02:02:28;;;;;;;;;;;;;;;13.71;70.09;102579.38;5490292;22;19924;-87
2022/02/08 02:05:22;;;;;;;;;;;;;;;13.91;69.69;102593.19;5088294;22;19926;-87
2022/02/08 02:11:03;;;;;;;;;;;;;;;14.87;65.81;102588.00;5353997;23;19948;-87
2022/02/08 02:19:53;;;;;;;;;;;;;;;13.73;70.27;102594.69;5050317;23;19976;-87
2022/02/08 02:22:32;;;;;;;;;;;;;;;14.89;65.86;102593.41;5101401;23;19926;-87
2022/02/08 02:25:37;;;;;;;;;;;;;;;14.54;65.97;102590.13;5027891;23;19925;-88
2022/02/08 02:28:03;;;;;;;;;;;;;;;14.65;66.92;102585.19;4952035;29;19941;-87
2022/02/08 02:30:51;;;;;;;;;;;;;;;14.52;66.51;102584.75;5239293;23;19926;-87
2022/02/08 02:33:24;;;;;;;;;;;;;;;14.25;68.44;102580.25;5195108;22;19997;-87
2022/02/08 02:36:06;;;;;;;;;;;;;;;14.18;67.59;102585.03;5141909;23;19932;-87
2022/02/08 02:41:52;;;;;;;;;;;;;;;13.80;69.14;102588.13;5109687;23;19912;-87
2022/02/08 03:18:58;;;;;;;;;;;;;;;15.00;65.49;102585.69;5152980;22;19941;-88
2022/02/08 03:21:28;;;;;;;;;;;;;;;15.58;62.38;102584.34;5146689;22;19912;-88
2022/02/08 03:24:31;;;;;;;;;;;;;;;14.37;66.32;102579.81;5075933;23;19929;-88
2022/02/08 03:30:18;;;;;;;;;;;;;;;14.31;67.97;102561.91;5099179;23;19936;-87
2022/02/08 03:33:17;;;;;;;;;;;;;;;14.43;66.05;102567.81;5165661;23;19925;-86
2022/02/08 03:38:59;;;;;;;;;;;;;;;14.48;63.85;102572.16;5217761;23;19953;-88
2022/02/08 03:45:33;;;;;;;;;;;;;;;14.50;64.86;102583.88;5408341;23;19952;-88
2022/02/08 03:48:31;;;;;;;;;;;;;;;14.75;64.32;102582.13;5072054;23;20179;-87
2022/02/08 03:51:26;;;;;;;;;;;;;;;14.83;63.17;102588.19;5121344;23;20055;-87
2022/02/08 03:54:37;;;;;;;;;;;;;;;14.74;64.01;102583.97;5103127;23;19925;-87
2022/02/08 03:57:30;;;;;;;;;;;;;;;14.25;64.29;102593.88;5492816;23;19923;-87
2022/02/08 04:42:38;;;;;;;;;;;;;;;14.90;59.83;102600.66;5192991;23;19926;-88
2022/02/08 04:54:22;;;;;;;;;;;;;;;14.82;59.57;102587.28;5121935;23;19960;-87
2022/02/08 05:41:55;;;;;;;;;;;;;;;15.06;55.77;102584.56;5028450;23;19933;-91
2022/02/08 05:44:42;;;;;;;;;;;;;;;15.04;56.99;102579.19;4986436;28;19975;-88
2022/02/08 05:47:08;;;;;;;;;;;;;;;15.02;56.74;102593.81;4988299;28;19964;-90
2022/02/08 05:49:50;;;;;;;;;;;;;;;14.69;58.89;102577.81;4988715;28;19918;-90
2022/02/08 05:55:01;;;;;;;;;;;;;;;14.89;57.39;102580.66;5004880;28;19928;-90
2022/02/08 05:57:27;;;;;;;;;;;;;;;14.98;56.65;102575.81;4987024;28;20479;-91
2022/02/08 05:59:53;;;;;;;;;;;;;;;15.14;56.69;102582.47;4979992;28;20400;-88
2022/02/08 06:02:19;;;;;;;;;;;;;;;14.20;58.61;102588.59;4980317;28;19944;-89
2022/02/08 06:04:45;;;;;;;;;;;;;;;15.31;56.64;102578.16;4980674;28;19941;-89
2022/02/08 06:07:15;;;;;;;;;;;;;;;14.98;57.28;102582.16;4980584;28;20372;-86
2022/02/08 06:09:40;;;;;;;;;;;;;;;14.63;57.16;102565.31;4997702;28;20276;-89
2022/02/08 06:12:05;;;;;;;;;;;;;;;14.73;56.79;102581.31;4979992;28;19928;-88
2022/02/08 06:14:33;;;;;;;;;;;;;;;14.69;57.61;102569.66;4980064;28;19928;-89
2022/02/08 06:16:58;;;;;;;;;;;;;;;14.84;57.36;102566.34;4980056;28;20009;-90
2022/02/08 06:19:23;;;;;;;;;;;;;;;14.99;56.50;102570.31;4980502;28;19972;-88
2022/02/08 06:21:48;;;;;;;;;;;;;;;15.52;55.10;102576.41;4980700;28;19922;-90
2022/02/08 06:24:14;;;;;;;;;;;;;;;14.70;56.73;102565.94;4981284;28;20403;-90
2022/02/08 06:26:39;;;;;;;;;;;;;;;15.20;56.33;102576.75;4981451;28;19941;-87
2022/02/08 06:29:11;;;;;;;;;;;;;;;15.65;55.11;102574.06;4983430;28;19921;-88
2022/02/08 06:31:37;;;;;;;;;;;;;;;14.98;56.13;102581.28;4983830;28;20359;-87
2022/02/08 06:34:02;;;;;;;;;;;;;;;14.90;56.72;102578.84;4980237;28;20047;-88
2022/02/08 06:36:27;;;;;;;;;;;;;;;15.00;56.04;102590.25;4979445;28;19913;-88
2022/02/08 06:38:53;;;;;;;;;;;;;;;15.46;54.64;102583.00;4979281;28;19925;-86
2022/02/08 06:41:18;;;;;;;;;;;;;;;15.10;54.96;102588.06;4978188;28;19926;-89
2022/02/08 06:43:43;;;;;;;;;;;;;;;14.86;56.39;102596.25;4979642;28;20008;-88
2022/02/08 06:46:08;;;;;;;;;;;;;;;15.23;55.29;102598.44;4980215;28;19953;-86
2022/02/08 06:48:34;;;;;;;;;;;;;;;14.88;55.79;102603.41;4979495;28;19925;-89
2022/02/08 06:50:59;;;;;;;;;;;;;;;14.52;56.13;102598.34;4980109;28;19917;-90
2022/02/08 06:53:25;;;;;;;;;;;;;;;14.63;56.45;102607.97;4982035;28;19930;-88
2022/02/08 06:55:50;;;;;;;;;;;;;;;15.33;54.33;102609.00;4964161;28;19926;-91
2022/02/08 06:58:16;;;;;;;;;;;;;;;14.52;55.91;102606.53;4980870;28;19939;-87
2022/02/08 07:00:44;;;;;;;;;;;;;;;14.82;56.50;102616.38;4978945;28;19918;-89
2022/02/08 07:03:11;;;;;;;;;;;;;;;14.38;57.25;102621.56;4979396;28;20364;-90
2022/02/08 07:05:37;;;;;;;;;;;;;;;15.13;54.60;102618.84;4978861;28;19925;-89
2022/02/08 07:08:02;;;;;;;;;;;;;;;14.81;56.01;102631.84;4995684;28;19921;-88
2022/02/08 07:10:28;;;;;;;;;;;;;;;15.91;53.23;102622.13;4978128;28;19925;-87
2022/02/08 07:12:54;;;;;;;;;;;;;;;14.42;56.26;102625.94;4978454;28;19918;-87
2022/02/08 07:15:21;;;;;;;;;;;;;;;14.12;57.41;102623.38;4978109;28;20000;-86
2022/02/08 07:17:46;;;;;;;;;;;;;;;15.08;54.30;102626.28;4977997;28;19917;-87
2022/02/08 07:20:12;;;;;;;;;;;;;;;14.79;55.52;102630.13;4977656;28;20273;-87
2022/02/08 07:22:37;;;;;;;;;;;;;;;15.45;53.91;102640.34;4977873;28;19918;-87
2022/02/08 07:25:03;;;;;;;;;;;;;;;14.35;56.31;102633.44;4976032;28;20230;-87
2022/02/08 07:27:28;;;;;;;;;;;;;;;14.30;56.80;102630.00;4976024;28;19918;-87
2022/02/08 07:29:54;;;;;;;;;;;;;;;14.47;56.91;102638.47;4976387;28;20387;-87
2022/02/08 07:32:28;;;;;;;;;;;;;;;14.98;55.63;102635.78;4976536;28;19918;-87
2022/02/08 07:35:06;;;;;;;;;;;;;;;14.61;56.64;102637.13;4977403;28;19917;-87
2022/02/08 07:37:47;;;;;;;;;;;;;;;14.47;56.95;102651.19;4978210;28;19984;-87
2022/02/08 07:40:27;;;;;;;;;;;;;;;14.82;56.01;102639.06;4977649;28;19921;-88
2022/02/08 07:42:53;;;;;;;;;;;;;;;14.28;57.46;102645.50;4977567;28;19926;-87
2022/02/08 07:45:18;;;;;;;;;;;;;;;14.12;57.49;102646.03;4978277;28;19918;-86
2022/02/08 07:47:43;;;;;;;;;;;;;;;13.94;58.85;102660.25;4978318;28;19973;-87
2022/02/08 07:50:08;;;;;;;;;;;;;;;13.52;60.52;102655.22;4977953;28;19918;-85
2022/02/08 07:52:37;;;;;;;;;;;;;;;13.71;60.93;102659.16;4977449;28;19918;-87
2022/02/08 07:55:02;;;;;;;;;;;;;;;14.78;57.25;102651.03;4977019;28;19921;-85
2022/02/08 07:57:27;;;;;;;;;;;;;;;14.23;57.94;102644.78;4977104;28;20257;-87
2022/02/08 07:59:52;;;;;;;;;;;;;;;14.20;58.53;102653.03;4977939;28;19917;-89
2022/02/08 08:02:17;;;;;;;;;;;;;;;14.14;58.95;102641.41;4980964;28;20391;-88
2022/02/08 08:04:43;;;;;;;;;;;;;;;14.18;59.91;102647.66;4981248;28;19918;-88
2022/02/08 08:07:08;;;;;;;;;;;;;;;14.48;58.60;102634.81;4977897;28;19918;-87
2022/02/08 08:09:39;;;;;;;;;;;;;;;14.12;59.29;102640.56;4978126;28;19918;-89
2022/02/08 08:12:04;;;;;;;;;;;;;;;14.23;59.59;102642.94;4979054;28;20279;-88
2022/02/08 08:14:32;;;;;;;;;;;;;;;14.32;58.35;102642.59;4977714;28;19921;-86
2022/02/08 08:17:13;;;;;;;;;;;;;;;14.27;59.48;102650.06;4978342;28;19941;-86
2022/02/08 08:19:38;;;;;;;;;;;;;;;13.83;60.61;102647.00;4994962;28;20261;-88
2022/02/08 08:22:05;;;;;;;;;;;;;;;14.39;59.10;102653.28;4977750;28;19952;-85
2022/02/08 08:24:30;;;;;;;;;;;;;;;14.17;59.84;102664.91;4977472;28;19914;-85
2022/02/08 08:26:55;;;;;;;;;;;;;;;14.07;59.72;102652.56;4977644;28;20018;-87
2022/02/08 08:29:20;;;;;;;;;;;;;;;14.34;59.08;102661.59;4977518;28;19914;-86
2022/02/08 08:31:45;;;;;;;;;;;;;;;14.14;59.07;102656.84;4977147;28;19968;-86
2022/02/08 08:34:12;;;;;;;;;;;;;;;14.22;59.12;102656.59;4977307;28;19925;-85
2022/02/08 08:36:38;;;;;;;;;;;;;;;13.79;61.05;102662.50;4977699;28;19973;-85
2022/02/08 08:39:04;;;;;;;;;;;;;;;14.85;56.99;102651.69;4977846;28;19960;-86
2022/02/08 08:51:47;;;;;;;;;;;;;;;14.41;57.82;102668.63;4994855;28;20217;-87
2022/02/08 08:54:13;;;;;;;;;;;;;;;14.91;56.29;102661.47;4980799;28;19918;-88
2022/02/08 08:56:39;;;;;;;;;;;;;;;14.52;57.42;102666.44;4982582;28;19993;-86
2022/02/08 08:59:05;;;;;;;;;;;;;;;14.69;56.65;102665.88;4977084;28;20009;-87
2022/02/08 09:01:30;;;;;;;;;;;;;;;14.91;57.32;102661.47;4977475;28;19917;-86
2022/02/08 09:03:56;;;;;;;;;;;;;;;15.63;53.79;102663.28;4977254;28;20279;-92
2022/02/08 09:06:23;;;;;;;;;;;;;;;14.74;56.74;102668.44;4976015;28;20444;-90
2022/02/08 09:08:49;;;;;;;;;;;;;;;15.19;55.97;102674.97;4962249;28;20013;-90
2022/02/08 09:14:13;;;;;;;;;;;;;;;15.08;54.83;102675.34;4979304;28;19926;-89
2022/02/08 09:16:45;;;;;;;;;;;;;;;14.98;54.76;102684.84;4978607;28;19956;-90
2022/02/08 09:27:54;;;;;;;;;;;;;;;15.17;54.03;102685.94;4974193;28;20379;-89
2022/02/08 09:30:29;;;;;;;;;;;;;;;15.44;53.37;102684.94;4961660;28;19940;-87
2022/02/08 09:32:55;;;;;;;;;;;;;;;16.09;52.28;102681.44;4961708;28;19922;-89
2022/02/08 09:35:20;;;;;;;;;;;;;;;15.45;53.37;102684.88;4961413;28;19918;-90
2022/02/08 09:37:46;;;;;;;;;;;;;;;15.70;53.37;102683.91;4961058;28;19918;-89
2022/02/08 09:40:12;;;;;;;;;;;;;;;15.36;54.64;102668.88;4961857;28;19949;-90
2022/02/08 09:42:40;;;;;;;;;;;;;;;15.37;54.06;102676.13;4961554;28;20460;-90
2022/02/08 09:45:07;;;;;;;;;;;;;;;16.46;51.34;102685.31;4978056;28;19969;-90
2022/02/08 09:47:41;;;;;;;;;;;;;;;15.61;53.10;102679.72;4977802;28;20022;-90
2022/02/08 09:50:14;;;;;;;;;;;;;;;15.03;55.24;102689.16;4977899;28;20295;-89
2022/02/08 09:52:45;;;;;;;;;;;;;;;15.90;52.41;102681.28;4980424;28;19922;-88
2022/02/08 09:55:11;;;;;;;;;;;;;;;15.18;53.29;102695.88;4980109;28;19922;-88
2022/02/08 09:57:36;;;;;;;;;;;;;;;15.03;54.41;102688.28;4980123;28;20594;-88
2022/02/08 10:00:01;;;;;;;;;;;;;;;15.93;51.91;102683.91;4979806;28;19917;-88
2022/02/08 10:02:27;;;;;;;;;;;;;;;15.65;52.22;102678.63;4980207;28;19917;-88
2022/02/08 10:05:03;;;;;;;;;;;;;;;15.29;53.12;102687.28;4979736;28;19914;-87
2022/02/08 10:07:30;;;;;;;;;;;;;;;15.87;51.83;102680.53;4974907;28;19961;-88
2022/02/08 10:09:56;;;;;;;;;;;;;;;16.53;49.68;102691.44;4980295;28;19930;-90
2022/02/08 10:12:28;;;;;;;;;;;;;;;15.14;53.00;102690.59;4980505;28;19933;-87
2022/02/08 10:22:57;;;;;;;;;;;;;;;15.74;51.28;102697.34;4995824;28;19924;-90
2022/02/08 10:28:09;;;;;;;;;;;;;;;16.09;50.61;102695.09;4996425;28;20610;-86
2022/02/08 10:38:41;;;;;;;;;;;;;;;15.19;52.60;102692.22;4996588;28;20621;-91
2022/02/08 10:41:10;;;;;;;;;;;;;;;16.06;49.69;102683.38;4979051;28;19925;-90
2022/02/08 10:43:37;;;;;;;;;;;;;;;15.90;50.80;102686.75;4980811;28;19957;-91
2022/02/08 10:46:03;;;;;;;;;;;;;;;15.80;50.83;102693.53;4979803;28;19925;-90
2022/02/08 10:48:29;;;;;;;;;;;;;;;16.02;49.72;102682.63;4984502;28;19917;-91
2022/02/08 10:50:57;;;;;;;;;;;;;;;15.83;50.86;102684.34;4980135;28;19945;-90
2022/02/08 10:53:27;;;;;;;;;;;;;;;16.48;48.96;102675.22;4979873;28;19925;-91
2022/02/08 10:56:14;;;;;;;;;;;;;;;16.41;49.31;102681.91;4982946;28;19917;-90
2022/02/08 10:58:50;;;;;;;;;;;;;;;15.68;51.21;102685.81;4996870;28;20009;-89
2022/02/08 11:01:20;;;;;;;;;;;;;;;15.81;50.79;102689.88;4979271;28;20133;-90
2022/02/08 11:03:58;;;;;;;;;;;;;;;15.60;51.35;102680.66;4979746;28;19922;-88
2022/02/08 11:06:32;;;;;;;;;;;;;;;14.78;53.13;102688.25;4997056;28;20008;-90
2022/02/08 11:14:58;;;;;;;;;;;;;;;15.81;50.63;102675.34;4994788;28;19941;-87
2022/02/08 11:20:12;;;;;;;;;;;;;;;16.07;50.64;102668.78;4995209;28;20472;-88
2022/02/08 11:22:58;;;;;;;;;;;;;;;15.25;51.85;102666.56;4977753;28;20535;-87
2022/02/08 11:28:03;;;;;;;;;;;;;;;15.47;51.52;102663.88;4994080;28;19924;-86
2022/02/08 11:30:45;;;;;;;;;;;;;;;16.35;49.92;102664.88;4992821;28;19917;-88
2022/02/08 11:47:21;;;;;;;;;;;;;;;16.46;48.89;102651.66;4996124;28;19925;-88
2022/02/08 11:49:46;;;;;;;;;;;;;;;16.41;49.15;102653.69;4994102;28;20291;-88
2022/02/08 11:52:29;;;;;;;;;;;;;;;15.67;50.37;102657.66;4983817;28;19965;-87
2022/02/08 12:08:02;;;;;;;;;;;;;;;15.64;51.04;102657.78;4934824;29;19974;-87
2022/02/08 12:10:40;;;;;;;;;;;;;;;15.84;50.17;102659.72;4919390;29;20423;-87
2022/02/08 13:20:19;;;;;;;;;;;;;;;16.26;50.44;102672.53;4994503;28;20327;-88
2022/02/08 14:04:00;;;;;;;;;;;;;;;15.95;50.88;102646.50;4997348;28;19945;-85
2022/02/08 14:09:38;;;;;;;;;;;;;;;15.80;50.44;102649.88;4996770;28;19972;-85
2022/02/08 14:12:27;;;;;;;;;;;;;;;16.07;50.51;102652.41;4979245;28;19933;-85
2022/02/08 14:30:28;;;;;;;;;;;;;;;15.82;50.62;102653.44;4996813;28;20398;-84
2022/02/08 15:10:20;;;;;;;;;;;;;;;16.35;49.25;102664.88;4996057;28;19921;-85
2022/02/08 15:12:52;;;;;;;;;;;;;;;16.32;49.89;102668.66;4977448;28;19930;-86
2022/02/08 15:15:28;;;;;;;;;;;;;;;15.24;52.92;102671.09;4977218;28;19933;-88
2022/02/08 15:17:53;;;;;;;;;;;;;;;16.89;48.67;102678.97;4975402;28;20407;-88
2022/02/08 15:20:18;;;;;;;;;;;;;;;16.10;50.56;102679.59;4978099;28;20009;-85
2022/02/08 15:22:44;;;;;;;;;;;;;;;15.68;52.15;102674.91;4978694;28;20264;-84
2022/02/08 15:25:13;;;;;;;;;;;;;;;15.19;52.84;102678.56;4994921;28;20120;-84
2022/02/08 15:27:40;;;;;;;;;;;;;;;15.24;52.77;102684.72;4991965;28;19918;-84
2022/02/08 15:30:07;;;;;;;;;;;;;;;15.82;51.56;102682.56;4980799;28;19922;-85
2022/02/08 15:32:34;;;;;;;;;;;;;;;15.48;52.26;102673.84;4977598;28;19926;-87
2022/02/08 15:34:59;;;;;;;;;;;;;;;14.94;54.84;102675.00;4994483;28;20451;-86
2022/02/08 15:37:30;;;;;;;;;;;;;;;15.13;54.10;102684.25;4994489;28;20020;-87
2022/02/08 15:39:55;;;;;;;;;;;;;;;14.92;53.92;102672.31;4979016;28;19956;-87
2022/02/08 15:42:28;;;;;;;;;;;;;;;16.39;50.56;102667.41;4996847;28;19937;-88
2022/02/08 15:44:55;;;;;;;;;;;;;;;15.04;54.20;102671.84;4977258;28;19926;-87
2022/02/08 15:47:21;;;;;;;;;;;;;;;15.62;52.27;102666.97;4976890;28;19918;-83
2022/02/08 15:49:56;;;;;;;;;;;;;;;14.29;55.29;102680.81;4993614;28;19918;-85
2022/02/08 15:52:45;;;;;;;;;;;;;;;15.01;53.65;102671.09;4976717;28;19918;-84
2022/02/08 15:55:27;;;;;;;;;;;;;;;14.68;54.76;102671.38;4976644;28;19918;-85
2022/02/08 15:58:07;;;;;;;;;;;;;;;14.90;54.56;102671.50;4975871;28;19930;-87
2022/02/08 16:01:05;;;;;;;;;;;;;;;15.33;53.04;102674.44;4976340;28;19934;-88
2022/02/08 16:09:10;;;;;;;;;;;;;;;15.12;54.03;102677.03;4992870;28;19964;-85
2022/02/08 16:11:54;;;;;;;;;;;;;;;14.48;55.50;102678.38;4976137;28;19974;-85
2022/02/08 16:57:17;;;;;;;;;;;;;;;14.21;55.85;102718.31;4995004;28;20493;-87
2022/02/08 16:59:44;;;;;;;;;;;;;;;14.87;54.32;102729.72;4976710;28;20372;-85
2022/02/08 17:02:10;;;;;;;;;;;;;;;15.10;54.12;102721.63;4977010;28;19917;-84
2022/02/08 17:04:35;;;;;;;;;;;;;;;14.59;55.52;102729.75;4976666;28;19917;-85
2022/02/08 17:07:01;;;;;;;;;;;;;;;14.58;55.52;102733.41;4976691;28;19918;-85
2022/02/08 17:09:43;;;;;;;;;;;;;;;15.45;53.38;102719.44;4976715;28;19934;-83
2022/02/08 17:47:42;;;;;;;;;;;;;;;13.92;56.64;102703.84;4953773;28;19964;-84
2022/02/08 17:50:16;;;;;;;;;;;;;;;14.72;55.57;102705.75;4981369;28;19918;-83
2022/02/08 17:52:45;;;;;;;;;;;;;;;14.60;56.00;102714.28;4997068;28;19929;-85
2022/02/08 17:55:11;;;;;;;;;;;;;;;13.97;57.33;102706.41;4997838;28;20028;-88
2022/02/08 17:57:36;;;;;;;;;;;;;;;14.60;54.98;102696.13;4980304;28;19976;-87
2022/02/08 18:00:03;;;;;;;;;;;;;;;14.60;55.39;102704.31;4982096;28;19961;-85
2022/02/08 18:02:28;;;;;;;;;;;;;;;15.14;53.67;102706.94;4998061;28;19918;-84
2022/02/08 18:04:56;;;;;;;;;;;;;;;15.14;54.40;102696.03;4997706;28;19940;-87
2022/02/08 18:07:23;;;;;;;;;;;;;;;14.23;55.62;102691.94;4980931;28;20372;-86
2022/02/08 18:09:49;;;;;;;;;;;;;;;13.60;57.61;102692.13;4997097;28;20356;-83
2022/02/08 18:12:15;;;;;;;;;;;;;;;14.39;56.05;102686.88;4979571;28;19926;-83
2022/02/08 18:14:43;;;;;;;;;;;;;;;15.26;53.35;102687.41;4979407;28;19945;-84
2022/02/08 18:17:17;;;;;;;;;;;;;;;14.82;54.48;102696.28;4979677;28;19953;-83
2022/02/08 18:19:49;;;;;;;;;;;;;;;15.14;53.10;102691.50;4979444;28;19939;-85
2022/02/08 18:25:00;;;;;;;;;;;;;;;15.44;52.71;102698.56;4997402;28;19972;-85
2022/02/08 18:27:43;;;;;;;;;;;;;;;14.28;55.68;102708.09;4979294;28;19972;-85
2022/02/08 19:21:38;;;;;;;;;;;;;;;14.70;57.09;102704.88;4958260;29;20065;-85
2022/02/08 19:24:04;;;;;;;;;;;;;;;13.82;58.81;102700.50;4941461;29;19966;-83
2022/02/08 19:26:29;;;;;;;;;;;;;;;14.76;58.02;102695.63;4957411;29;19918;-86
2022/02/08 19:28:54;;;;;;;;;;;;;;;14.93;55.79;102692.28;4948274;28;19926;-85
2022/02/08 19:31:20;;;;;;;;;;;;;;;15.11;55.34;102693.44;4976454;28;19950;-86
2022/02/08 19:33:50;;;;;;;;;;;;;;;14.58;57.43;102698.00;4959635;28;19976;-87
2022/02/08 19:36:16;;;;;;;;;;;;;;;14.89;56.41;102689.66;4976268;28;19973;-85
2022/02/08 19:38:43;;;;;;;;;;;;;;;14.73;57.18;102684.81;4977419;28;19922;-85
2022/02/08 19:41:08;;;;;;;;;;;;;;;15.39;54.82;102680.53;4959160;28;19926;-87
2022/02/08 19:43:34;;;;;;;;;;;;;;;14.51;56.60;102691.00;4976791;28;19928;-86
2022/02/08 19:45:59;;;;;;;;;;;;;;;15.01;55.70;102688.34;4978159;28;19957;-86
2022/02/08 19:48:24;;;;;;;;;;;;;;;15.17;56.96;102696.84;4978123;28;19921;-86
2022/02/08 19:50:50;;;;;;;;;;;;;;;14.83;55.84;102689.00;4995514;28;19964;-85
2022/02/08 19:53:15;;;;;;;;;;;;;;;15.46;55.53;102708.47;4977594;28;19918;-86
2022/02/08 19:55:54;;;;;;;;;;;;;;;15.57;53.94;102708.94;4977531;28;20076;-86
2022/02/08 19:58:23;;;;;;;;;;;;;;;14.77;56.49;102720.09;4977816;28;19917;-84
2022/02/08 20:03:58;;;;;;;;;;;;;;;15.36;54.37;102717.94;4917234;29;19920;-84
2022/02/08 20:06:27;;;;;;;;;;;;;;;14.86;56.27;102721.59;4982779;28;19968;-83
2022/02/08 20:08:52;;;;;;;;;;;;;;;15.08;56.55;102716.25;4984569;28;19918;-86
2022/02/08 20:11:17;;;;;;;;;;;;;;;15.30;55.46;102720.91;4971525;28;19937;-87
2022/02/08 20:13:51;;;;;;;;;;;;;;;14.66;56.74;102727.72;4984036;28;19929;-87
2022/02/08 20:16:17;;;;;;;;;;;;;;;15.80;54.47;102720.81;4991099;28;20387;-85
2022/02/08 20:18:48;;;;;;;;;;;;;;;15.68;53.94;102724.88;4993012;28;19922;-88
2022/02/08 20:21:14;;;;;;;;;;;;;;;15.28;56.23;102722.78;4970177;28;19917;-87
2022/02/08 20:23:39;;;;;;;;;;;;;;;15.74;53.65;102721.03;4962336;28;20013;-88
2022/02/08 20:26:06;;;;;;;;;;;;;;;15.28;54.82;102726.44;4974820;28;20025;-89
2022/02/08 20:28:38;;;;;;;;;;;;;;;15.36;55.16;102728.88;5000264;28;19918;-87
2022/02/08 20:31:03;;;;;;;;;;;;;;;14.91;55.37;102726.88;4982707;28;19926;-82
2022/02/08 20:33:29;;;;;;;;;;;;;;;15.57;54.45;102738.06;4975623;28;20339;-83
2022/02/08 20:35:56;;;;;;;;;;;;;;;15.07;54.89;102731.72;4973095;28;20428;-83
2022/02/08 20:38:21;;;;;;;;;;;;;;;14.43;57.66;102740.28;4976407;28;19925;-83
2022/02/08 20:40:49;;;;;;;;;;;;;;;14.79;57.71;102739.97;4984041;28;20256;-86
2022/02/08 20:43:17;;;;;;;;;;;;;;;14.93;56.76;102733.16;4982224;28;20008;-83
2022/02/08 20:46:02;;;;;;;;;;;;;;;14.53;59.11;102738.13;5000785;28;19945;-87
2022/02/08 20:48:28;;;;;;;;;;;;;;;14.59;57.95;102726.16;4977428;28;19929;-87
2022/02/08 20:51:00;;;;;;;;;;;;;;;15.35;56.00;102730.72;4989523;28;19944;-87
2022/02/08 20:53:36;;;;;;;;;;;;;;;14.76;57.24;102734.63;4992863;28;19924;-83
2022/02/08 20:56:15;;;;;;;;;;;;;;;14.93;56.62;102730.44;4971405;28;19918;-84
2022/02/08 21:01:25;;;;;;;;;;;;;;;13.94;60.59;102728.28;5003337;28;20291;-84
2022/02/08 21:04:01;;;;;;;;;;;;;;;14.35;59.74;102728.75;4987179;28;19917;-85
2022/02/08 21:06:28;;;;;;;;;;;;;;;14.83;57.33;102714.41;5005615;28;19921;-87
2022/02/08 21:08:54;;;;;;;;;;;;;;;14.58;58.36;102716.19;4988305;28;19940;-89
2022/02/08 21:11:20;;;;;;;;;;;;;;;14.74;56.65;102720.19;4988060;28;20069;-86
2022/02/08 21:13:52;;;;;;;;;;;;;;;14.59;58.32;102723.41;4987949;28;19922;-88
2022/02/08 21:16:27;;;;;;;;;;;;;;;14.25;58.99;102722.72;5005358;28;19918;-86
2022/02/08 21:18:53;;;;;;;;;;;;;;;14.41;60.19;102714.91;4988734;28;19924;-87
2022/02/08 21:21:18;;;;;;;;;;;;;;;14.13;60.36;102706.78;4989526;28;19985;-88
2022/02/08 21:23:45;;;;;;;;;;;;;;;14.40;60.73;102710.41;4988919;28;19929;-85
2022/02/08 21:26:14;;;;;;;;;;;;;;;14.42;59.69;102707.63;4989692;28;19913;-90
2022/02/08 21:28:56;;;;;;;;;;;;;;;13.78;63.64;102707.00;4988920;28;19925;-86
2022/02/08 21:47:04;;;;;;;;;;;;;;;14.70;58.60;102696.72;5002857;28;20295;-88
2022/02/08 21:47:59;;;;;;;;;;;;;;;14.71;59.83;102693.06;4991168;28;19933;-86
2022/02/08 21:53:04;;;;;;;;;;;;;;;15.06;56.94;102678.13;5001659;28;19918;-90
2022/02/08 21:55:30;;;;;;;;;;;;;;;15.63;55.66;102676.94;4984484;28;19918;-89
2022/02/08 21:57:58;;;;;;;;;;;;;;;14.61;59.12;102680.69;4987574;28;19921;-85
2022/02/08 22:00:24;;;;;;;;;;;;;;;14.39;59.18;102686.88;4984719;28;19984;-79
2022/02/08 22:02:54;;;;;;;;;;;;;;;14.83;58.27;102673.53;4986798;28;20360;-85
2022/02/08 22:05:20;;;;;;;;;;;;;;;15.13;56.49;102673.34;4985493;28;19918;-84
2022/02/08 22:08:10;;;;;;;;;;;;;;;14.80;57.64;102668.19;5003133;28;19955;-89
2022/02/08 22:18:50;;;;;;;;;;;;;;;14.84;57.62;102660.78;5001666;28;20276;-80
2022/02/08 22:21:23;;;;;;;;;;;;;;;15.24;56.13;102670.22;4985408;28;19926;-87
2022/02/08 22:23:54;;;;;;;;;;;;;;;14.85;58.03;102668.91;5002931;28;20008;-85
2022/02/08 22:29:31;;;;;;;;;;;;;;;14.14;59.19;102663.19;5002576;28;19925;-86
2022/02/08 22:36:58;;;;;;;;;;;;;;;14.85;57.42;102659.84;5002647;28;19918;-86
2022/02/08 22:41:56;;;;;;;;;;;;;;;15.39;55.39;102657.84;5001596;28;19929;-83
2022/02/08 22:44:35;;;;;;;;;;;;;;;14.66;57.28;102668.72;5001859;28;20012;-85
2022/02/08 22:47:01;;;;;;;;;;;;;;;14.31;59.88;102670.78;4982541;28;19917;-86
2022/02/08 22:49:27;;;;;;;;;;;;;;;14.47;58.45;102672.97;4981101;28;19918;-87
2022/02/08 22:51:53;;;;;;;;;;;;;;;14.36;58.71;102673.38;4996747;28;20371;-85
2022/02/08 22:54:18;;;;;;;;;;;;;;;13.92;60.47;102671.19;4997143;28;19918;-83
2022/02/08 22:56:46;;;;;;;;;;;;;;;14.82;57.80;102669.03;4979555;28;19918;-87
2022/02/08 22:59:12;;;;;;;;;;;;;;;14.87;57.72;102667.03;4979391;28;20371;-87
2022/02/08 23:01:38;;;;;;;;;;;;;;;14.44;59.22;102673.09;4979231;28;19924;-87
2022/02/08 23:04:03;;;;;;;;;;;;;;;14.35;59.95;102663.41;4979306;28;20359;-86
2022/02/08 23:06:30;;;;;;;;;;;;;;;14.33;59.95;102659.84;4996994;28;19918;-86
2022/02/08 23:08:55;;;;;;;;;;;;;;;14.95;57.46;102660.44;4996828;28;19925;-86
2022/02/08 23:13:53;;;;;;;;;;;;;;;14.19;60.11;102673.91;4996695;28;19930;-87
2022/02/08 23:16:36;;;;;;;;;;;;;;;14.63;58.38;102665.19;4979904;28;20005;-85
2022/02/08 23:38:08;;;;;;;;;;;;;;;13.46;61.78;102661.75;4996031;28;20048;-84
2022/02/08 23:40:34;;;;;;;;;;;;;;;14.67;57.43;102661.41;4995557;28;20455;-87
2022/02/08 23:42:59;;;;;;;;;;;;;;;14.63;58.46;102654.28;4978110;28;19926;-87